sensor_id;sensor_type;location;lat;lon;timestamp;pressure;altitude;pressure_sealevel;temperature;humidity
61568;BME280;47462;59.172;17.196;2023-02-10T00:02:22;100247.03;;;2.40;52.17
61568;BME280;47462;59.172;17.196;2023-02-10T00:04:47;100236.72;;;2.46;51.81
61568;BME280;47462;59.172;17.196;2023-02-10T00:07:13;100241.00;;;2.47;51.27
61568;BME280;47462;59.172;17.196;2023-02-10T00:09:38;100253.06;;;2.38;51.83
61568;BME280;47462;59.172;17.196;2023-02-10T00:12:04;100269.34;;;2.38;51.49
61568;BME280;47462;59.172;17.196;2023-02-10T00:14:30;100225.63;;;2.13;51.27
61568;BME280;47462;59.172;17.196;2023-02-10T00:16:56;100255.66;;;2.27;50.63
61568;BME280;47462;59.172;17.196;2023-02-10T00:19:23;100252.22;;;2.26;51.35
61568;BME280;47462;59.172;17.196;2023-02-10T00:21:50;100243.66;;;2.15;51.47
61568;BME280;47462;59.172;17.196;2023-02-10T00:24:16;100245.41;;;2.04;50.33
61568;BME280;47462;59.172;17.196;2023-02-10T00:26:42;100271.13;;;2.27;50.30
61568;BME280;47462;59.172;17.196;2023-02-10T00:29:08;100259.94;;;2.16;50.79
61568;BME280;47462;59.172;17.196;2023-02-10T00:31:33;100238.53;;;1.90;50.96
61568;BME280;47462;59.172;17.196;2023-02-10T00:33:58;100263.41;;;2.04;49.85
61568;BME280;47462;59.172;17.196;2023-02-10T00:36:24;100260.81;;;1.91;50.23
61568;BME280;47462;59.172;17.196;2023-02-10T00:38:50;100274.56;;;1.92;50.22
61568;BME280;47462;59.172;17.196;2023-02-10T00:41:16;100307.19;;;2.08;49.56
61568;BME280;47462;59.172;17.196;2023-02-10T00:43:42;100289.13;;;1.91;49.30
61568;BME280;47462;59.172;17.196;2023-02-10T00:46:09;100319.16;;;2.11;49.66
61568;BME280;47462;59.172;17.196;2023-02-10T00:48:35;100333.75;;;2.06;49.64
61568;BME280;47462;59.172;17.196;2023-02-10T00:51:01;100336.34;;;1.96;51.16
61568;BME280;47462;59.172;17.196;2023-02-10T00:53:27;100290.00;;;1.70;51.17
61568;BME280;47462;59.172;17.196;2023-02-10T00:55:53;100304.56;;;1.76;49.61
61568;BME280;47462;59.172;17.196;2023-02-10T00:58:18;100344.06;;;1.93;49.91
61568;BME280;47462;59.172;17.196;2023-02-10T01:00:44;100343.16;;;1.87;51.33
61568;BME280;47462;59.172;17.196;2023-02-10T01:03:09;100280.50;;;1.32;51.37
61568;BME280;47462;59.172;17.196;2023-02-10T01:05:35;100333.72;;;1.59;50.91
61568;BME280;47462;59.172;17.196;2023-02-10T01:08:00;100358.56;;;1.60;50.83
61568;BME280;47462;59.172;17.196;2023-02-10T01:10:26;100381.72;;;1.60;51.45
61568;BME280;47462;59.172;17.196;2023-02-10T01:12:52;100383.47;;;1.72;50.01
61568;BME280;47462;59.172;17.196;2023-02-10T01:15:18;100379.16;;;1.65;49.07
61568;BME280;47462;59.172;17.196;2023-02-10T01:17:43;100325.06;;;1.39;49.41
61568;BME280;47462;59.172;17.196;2023-02-10T01:20:09;100349.97;;;1.49;49.39
61568;BME280;47462;59.172;17.196;2023-02-10T01:22:35;100404.03;;;1.65;50.41
61568;BME280;47462;59.172;17.196;2023-02-10T01:25:01;100405.75;;;1.63;50.38
61568;BME280;47462;59.172;17.196;2023-02-10T01:27:27;100369.69;;;1.49;49.71
61568;BME280;47462;59.172;17.196;2023-02-10T01:29:52;100412.59;;;1.65;48.99
61568;BME280;47462;59.172;17.196;2023-02-10T01:32:18;100376.47;;;1.31;49.33
61568;BME280;47462;59.172;17.196;2023-02-10T01:34:43;100423.69;;;1.49;49.06
61568;BME280;47462;59.172;17.196;2023-02-10T01:37:09;100421.16;;;1.58;48.45
61568;BME280;47462;59.172;17.196;2023-02-10T01:39:34;100409.09;;;1.46;49.27
61568;BME280;47462;59.172;17.196;2023-02-10T01:42:00;100361.75;;;0.99;49.25
61568;BME280;47462;59.172;17.196;2023-02-10T01:46:51;100455.41;;;1.52;49.44
61568;BME280;47462;59.172;17.196;2023-02-10T01:49:29;100463.94;;;1.45;49.84
61568;BME280;47462;59.172;17.196;2023-02-10T01:52:06;100441.56;;;1.25;48.86
61568;BME280;47462;59.172;17.196;2023-02-10T01:55:11;100463.06;;;1.37;48.63
61568;BME280;47462;59.172;17.196;2023-02-10T01:57:40;100452.72;;;1.24;48.85
61568;BME280;47462;59.172;17.196;2023-02-10T02:00:08;100465.63;;;1.35;49.09
61568;BME280;47462;59.172;17.196;2023-02-10T02:02:35;100436.34;;;1.10;49.32
61568;BME280;47462;59.172;17.196;2023-02-10T02:05:04;100475.84;;;1.21;49.57
61568;BME280;47462;59.172;17.196;2023-02-10T02:07:35;100490.34;;;1.15;47.83
61568;BME280;47462;59.172;17.196;2023-02-10T02:10:04;100504.16;;;1.29;48.46
61568;BME280;47462;59.172;17.196;2023-02-10T02:17:50;100505.81;;;1.24;48.88
61568;BME280;47462;59.172;17.196;2023-02-10T02:23:53;100506.59;;;1.09;48.23
61568;BME280;47462;59.172;17.196;2023-02-10T02:26:33;100529.75;;;1.11;48.09
61568;BME280;47462;59.172;17.196;2023-02-10T02:32:16;100525.44;;;1.08;48.43
61568;BME280;47462;59.172;17.196;2023-02-10T02:34:49;100530.53;;;1.02;48.48
61568;BME280;47462;59.172;17.196;2023-02-10T02:39:42;100496.06;;;0.75;48.03
61568;BME280;47462;59.172;17.196;2023-02-10T02:44:40;100521.88;;;0.91;47.42
61568;BME280;47462;59.172;17.196;2023-02-10T02:52:52;100478.66;;;0.40;48.34
61568;BME280;47462;59.172;17.196;2023-02-10T02:58:32;100566.44;;;0.94;46.54
61568;BME280;47462;59.172;17.196;2023-02-10T03:00:58;100564.69;;;0.92;47.26
61568;BME280;47462;59.172;17.196;2023-02-10T03:03:33;100530.19;;;0.60;47.32
61568;BME280;47462;59.172;17.196;2023-02-10T03:06:00;100529.41;;;0.67;47.53
61568;BME280;47462;59.172;17.196;2023-02-10T03:08:27;100547.44;;;0.72;47.76
61568;BME280;47462;59.172;17.196;2023-02-10T03:10:53;100582.63;;;0.87;46.81
61568;BME280;47462;59.172;17.196;2023-02-10T03:13:19;100408.63;;;-0.34;47.68
61568;BME280;47462;59.172;17.196;2023-02-10T03:15:45;100579.09;;;0.73;47.41
61568;BME280;47462;59.172;17.196;2023-02-10T03:18:11;100622.00;;;0.80;48.09
61568;BME280;47462;59.172;17.196;2023-02-10T03:20:36;100594.47;;;0.68;47.30
61568;BME280;47462;59.172;17.196;2023-02-10T03:23:02;100598.81;;;0.74;47.86
61568;BME280;47462;59.172;17.196;2023-02-10T03:25:27;100581.53;;;0.59;47.93
61568;BME280;47462;59.172;17.196;2023-02-10T03:27:52;100570.41;;;0.61;47.08
61568;BME280;47462;59.172;17.196;2023-02-10T03:30:18;100579.00;;;0.63;46.86
61568;BME280;47462;59.172;17.196;2023-02-10T03:32:43;100570.38;;;0.58;47.47
61568;BME280;47462;59.172;17.196;2023-02-10T03:35:08;100601.34;;;0.70;47.71
61568;BME280;47462;59.172;17.196;2023-02-10T03:37:34;100544.34;;;0.23;48.36
61568;BME280;47462;59.172;17.196;2023-02-10T03:39:59;100480.59;;;-0.19;47.56
61568;BME280;47462;59.172;17.196;2023-02-10T03:42:25;100546.09;;;0.27;48.40
61568;BME280;47462;59.172;17.196;2023-02-10T03:44:50;100608.91;;;0.60;48.74
61568;BME280;47462;59.172;17.196;2023-02-10T03:47:16;100569.38;;;0.42;48.92
61568;BME280;47462;59.172;17.196;2023-02-10T03:49:41;100579.56;;;0.36;47.54
61568;BME280;47462;59.172;17.196;2023-02-10T03:52:06;100627.00;;;0.67;47.46
61568;BME280;47462;59.172;17.196;2023-02-10T03:54:32;100637.22;;;0.64;47.75
61568;BME280;47462;59.172;17.196;2023-02-10T03:56:58;100607.94;;;0.47;48.16
61568;BME280;47462;59.172;17.196;2023-02-10T03:59:24;100516.63;;;-0.08;48.47
61568;BME280;47462;59.172;17.196;2023-02-10T04:01:50;100651.56;;;0.45;49.12
61568;BME280;47462;59.172;17.196;2023-02-10T04:04:17;100642.09;;;0.41;48.18
61568;BME280;47462;59.172;17.196;2023-02-10T04:06:42;100587.97;;;0.23;47.48
61568;BME280;47462;59.172;17.196;2023-02-10T09:55:58;101258.13;;;1.65;43.62
61568;BME280;47462;59.172;17.196;2023-02-10T10:03:37;101337.78;;;2.09;43.34
61568;BME280;47462;59.172;17.196;2023-02-10T10:06:21;101329.22;;;2.10;43.24
61568;BME280;47462;59.172;17.196;2023-02-10T10:11:43;101365.72;;;2.38;43.28
61568;BME280;47462;59.172;17.196;2023-02-10T10:14:27;101363.22;;;2.44;43.43
61568;BME280;47462;59.172;17.196;2023-02-10T10:23:21;101344.97;;;2.28;42.76
61568;BME280;47462;59.172;17.196;2023-02-10T10:29:44;101370.31;;;2.60;42.95
61568;BME280;47462;59.172;17.196;2023-02-10T10:32:23;101370.53;;;2.73;42.56
61568;BME280;47462;59.172;17.196;2023-02-10T10:34:52;101361.00;;;2.68;41.79
61568;BME280;47462;59.172;17.196;2023-02-10T10:37:21;101341.16;;;2.61;41.64
61568;BME280;47462;59.172;17.196;2023-02-10T10:39:57;101330.50;;;2.38;41.66
61568;BME280;47462;59.172;17.196;2023-02-10T10:42:40;101363.53;;;2.65;41.98
61568;BME280;47462;59.172;17.196;2023-02-10T10:45:20;101361.03;;;2.70;41.97
61568;BME280;47462;59.172;17.196;2023-02-10T10:47:51;100907.47;;;-0.06;41.57
61568;BME280;47462;59.172;17.196;2023-02-10T10:50:21;101327.22;;;2.47;42.18
61568;BME280;47462;59.172;17.196;2023-02-10T10:52:50;101321.16;;;2.45;42.21
61568;BME280;47462;59.172;17.196;2023-02-10T10:55:38;101358.13;;;2.47;41.29
61568;BME280;47462;59.172;17.196;2023-02-10T10:58:25;101391.84;;;2.62;40.91
61568;BME280;47462;59.172;17.196;2023-02-10T11:00:54;101396.16;;;2.63;41.35
61568;BME280;47462;59.172;17.196;2023-02-10T11:03:19;101393.75;;;2.74;40.81
61568;BME280;47462;59.172;17.196;2023-02-10T11:06:01;101380.91;;;2.77;40.68
61568;BME280;47462;59.172;17.196;2023-02-10T11:08:33;101345.50;;;2.65;40.86
61568;BME280;47462;59.172;17.196;2023-02-10T11:11:01;101372.31;;;2.80;39.72
61568;BME280;47462;59.172;17.196;2023-02-10T11:13:29;101248.22;;;1.89;39.40
61568;BME280;47462;59.172;17.196;2023-02-10T11:16:10;101341.00;;;2.50;40.11
61568;BME280;47462;59.172;17.196;2023-02-10T11:18:37;101317.41;;;2.23;39.53
61568;BME280;47462;59.172;17.196;2023-02-10T11:21:06;101367.75;;;2.60;40.25
61568;BME280;47462;59.172;17.196;2023-02-10T11:23:36;101333.19;;;2.46;39.96
61568;BME280;47462;59.172;17.196;2023-02-10T11:26:06;101374.84;;;2.75;39.96
61568;BME280;47462;59.172;17.196;2023-02-10T11:28:41;101331.66;;;2.60;40.13
61568;BME280;47462;59.172;17.196;2023-02-10T11:31:29;101376.66;;;2.82;39.85
61568;BME280;47462;59.172;17.196;2023-02-10T11:34:01;101296.34;;;2.52;39.21
61568;BME280;47462;59.172;17.196;2023-02-10T11:36:34;101347.69;;;2.99;39.50
61568;BME280;47462;59.172;17.196;2023-02-10T11:39:06;101280.97;;;2.56;38.74
61568;BME280;47462;59.172;17.196;2023-02-10T11:41:40;101372.63;;;3.03;38.46
61568;BME280;47462;59.172;17.196;2023-02-10T11:44:23;101370.03;;;3.00;38.41
61568;BME280;47462;59.172;17.196;2023-02-10T11:47:14;101373.41;;;2.94;38.61
61568;BME280;47462;59.172;17.196;2023-02-10T11:49:48;101383.81;;;3.02;39.42
61568;BME280;47462;59.172;17.196;2023-02-10T11:52:16;101288.72;;;2.58;39.09
61568;BME280;47462;59.172;17.196;2023-02-10T11:54:42;101388.38;;;3.25;38.01
61568;BME280;47462;59.172;17.196;2023-02-10T12:00:36;101368.66;;;3.28;38.46
61568;BME280;47462;59.172;17.196;2023-02-10T12:08:41;101387.75;;;3.43;37.87
61568;BME280;47462;59.172;17.196;2023-02-10T12:11:24;101359.97;;;3.21;37.92
61568;BME280;47462;59.172;17.196;2023-02-10T12:19:26;101395.44;;;3.38;37.15
61568;BME280;47462;59.172;17.196;2023-02-10T12:38:18;101395.34;;;3.32;38.08
61568;BME280;47462;59.172;17.196;2023-02-10T12:43:57;101375.44;;;3.20;38.27
61568;BME280;47462;59.172;17.196;2023-02-10T12:49:22;101370.03;;;3.01;38.99
61568;BME280;47462;59.172;17.196;2023-02-10T12:52:13;101406.41;;;3.21;37.74
61568;BME280;47462;59.172;17.196;2023-02-10T12:54:50;101403.72;;;3.14;37.95
61568;BME280;47462;59.172;17.196;2023-02-10T12:57:40;101404.56;;;3.10;37.84
61568;BME280;47462;59.172;17.196;2023-02-10T13:00:30;101406.34;;;3.17;38.05
61568;BME280;47462;59.172;17.196;2023-02-10T13:03:03;101408.13;;;3.21;38.42
61568;BME280;47462;59.172;17.196;2023-02-10T13:05:42;101419.28;;;3.20;38.13
61568;BME280;47462;59.172;17.196;2023-02-10T13:08:22;101412.28;;;3.10;38.09
61568;BME280;47462;59.172;17.196;2023-02-10T13:10:51;101388.03;;;2.97;38.45
61568;BME280;47462;59.172;17.196;2023-02-10T13:13:27;101405.38;;;3.07;38.90
61568;BME280;47462;59.172;17.196;2023-02-10T13:16:08;101393.25;;;3.01;37.87
61568;BME280;47462;59.172;17.196;2023-02-10T13:18:42;101406.97;;;2.97;37.90
61568;BME280;47462;59.172;17.196;2023-02-10T13:21:15;101394.88;;;2.95;38.30
61568;BME280;47462;59.172;17.196;2023-02-10T13:23:48;101401.94;;;3.08;38.71
61568;BME280;47462;59.172;17.196;2023-02-10T13:29:45;101396.63;;;2.96;38.44
61568;BME280;47462;59.172;17.196;2023-02-10T13:32:29;101392.31;;;2.95;39.18
61568;BME280;47462;59.172;17.196;2023-02-10T13:34:59;101267.50;;;2.14;39.65
61568;BME280;47462;59.172;17.196;2023-02-10T13:37:39;101393.84;;;2.82;39.98
61568;BME280;47462;59.172;17.196;2023-02-10T13:40:51;101353.88;;;2.50;40.11
61568;BME280;47462;59.172;17.196;2023-02-10T13:43:32;101393.81;;;2.79;39.97
61568;BME280;47462;59.172;17.196;2023-02-10T13:45:59;101359.75;;;2.43;40.08
61568;BME280;47462;59.172;17.196;2023-02-10T13:48:31;101332.06;;;2.27;39.93
61568;BME280;47462;59.172;17.196;2023-02-10T13:51:05;101402.06;;;2.56;40.55
61568;BME280;47462;59.172;17.196;2023-02-10T13:58:32;101390.50;;;2.31;40.52
61568;BME280;47462;59.172;17.196;2023-02-10T14:00:58;101380.22;;;2.34;40.20
61568;BME280;47462;59.172;17.196;2023-02-10T14:03:33;101346.38;;;2.11;40.12
61568;BME280;47462;59.172;17.196;2023-02-10T14:06:03;101396.63;;;2.38;39.84
61568;BME280;47462;59.172;17.196;2023-02-10T14:11:02;101409.16;;;2.16;40.30
61568;BME280;47462;59.172;17.196;2023-02-10T14:13:30;101369.84;;;1.79;41.09
61568;BME280;47462;59.172;17.196;2023-02-10T14:16:02;101394.31;;;2.03;40.74
61568;BME280;47462;59.172;17.196;2023-02-10T14:18:34;101392.50;;;1.97;40.80
61568;BME280;47462;59.172;17.196;2023-02-10T14:21:11;101376.19;;;1.96;40.97
61568;BME280;47462;59.172;17.196;2023-02-10T14:23:40;101325.13;;;1.71;41.82
61568;BME280;47462;59.172;17.196;2023-02-10T14:26:15;101235.16;;;1.27;41.51
61568;BME280;47462;59.172;17.196;2023-02-10T14:28:47;101353.06;;;2.00;41.83
61568;BME280;47462;59.172;17.196;2023-02-10T14:31:19;101328.88;;;1.91;42.24
61568;BME280;47462;59.172;17.196;2023-02-10T14:34:32;101345.22;;;1.92;42.54
61568;BME280;47462;59.172;17.196;2023-02-10T14:37:18;101342.34;;;1.75;42.15
61568;BME280;47462;59.172;17.196;2023-02-10T14:39:56;101353.56;;;1.78;42.75
61568;BME280;47462;59.172;17.196;2023-02-10T14:42:24;101305.78;;;1.44;43.39
61568;BME280;47462;59.172;17.196;2023-02-10T14:44:52;101360.28;;;1.70;44.01
61568;BME280;47462;59.172;17.196;2023-02-10T14:47:21;101363.53;;;1.62;44.67
61568;BME280;47462;59.172;17.196;2023-02-10T14:49:52;101238.59;;;0.81;44.99
61568;BME280;47462;59.172;17.196;2023-02-10T14:52:30;101366.75;;;1.50;45.61
61568;BME280;47462;59.172;17.196;2023-02-10T14:54:57;101380.63;;;1.58;44.95
61568;BME280;47462;59.172;17.196;2023-02-10T14:57:24;101371.97;;;1.54;45.02
61568;BME280;47462;59.172;17.196;2023-02-10T14:59:54;101337.25;;;1.31;44.91
61568;BME280;47462;59.172;17.196;2023-02-10T15:02:23;101374.47;;;1.50;44.71
61568;BME280;47462;59.172;17.196;2023-02-10T15:04:51;101266.88;;;0.81;45.36
61568;BME280;47462;59.172;17.196;2023-02-10T15:07:32;101369.75;;;1.29;45.77
61568;BME280;47462;59.172;17.196;2023-02-10T15:10:34;101371.56;;;1.33;45.72
61568;BME280;47462;59.172;17.196;2023-02-10T15:13:01;101298.78;;;0.93;45.85
61568;BME280;47462;59.172;17.196;2023-02-10T15:15:36;101271.03;;;0.76;46.81
61568;BME280;47462;59.172;17.196;2023-02-10T15:18:12;101324.50;;;0.94;46.91
61568;BME280;47462;59.172;17.196;2023-02-10T15:20:39;101242.31;;;0.55;46.19
61568;BME280;47462;59.172;17.196;2023-02-10T15:23:10;101343.66;;;1.10;46.32
61568;BME280;47462;59.172;17.196;2023-02-10T15:25:36;101282.28;;;0.81;46.65
61568;BME280;47462;59.172;17.196;2023-02-10T15:30:53;101319.56;;;1.03;46.65
61568;BME280;47462;59.172;17.196;2023-02-10T15:38:34;101316.16;;;1.04;46.57
61568;BME280;47462;59.172;17.196;2023-02-10T15:49:15;101302.38;;;1.02;46.85
61568;BME280;47462;59.172;17.196;2023-02-10T15:51:45;101181.06;;;0.32;46.76
61568;BME280;47462;59.172;17.196;2023-02-10T15:54:14;101261.84;;;0.87;47.17
61568;BME280;47462;59.172;17.196;2023-02-10T15:56:41;101297.34;;;1.07;47.06
61568;BME280;47462;59.172;17.196;2023-02-10T15:59:14;101255.66;;;0.78;47.26
61568;BME280;47462;59.172;17.196;2023-02-10T16:01:40;101267.06;;;0.91;47.25
61568;BME280;47462;59.172;17.196;2023-02-10T16:04:06;101139.66;;;0.15;46.90
61568;BME280;47462;59.172;17.196;2023-02-10T16:06:34;101288.72;;;1.03;47.39
61568;BME280;47462;59.172;17.196;2023-02-10T16:09:00;101236.88;;;0.80;47.80
61568;BME280;47462;59.172;17.196;2023-02-10T16:11:25;101259.53;;;1.00;48.04
61568;BME280;47462;59.172;17.196;2023-02-10T16:13:53;101177.09;;;0.45;48.14
61568;BME280;47462;59.172;17.196;2023-02-10T16:16:19;101184.13;;;0.55;47.61
61568;BME280;47462;59.172;17.196;2023-02-10T16:18:44;101137.41;;;0.30;47.39
61568;BME280;47462;59.172;17.196;2023-02-10T16:21:13;101219.78;;;0.84;47.48
61568;BME280;47462;59.172;17.196;2023-02-10T16:23:40;101201.75;;;0.81;47.41
61568;BME280;47462;59.172;17.196;2023-02-10T16:26:06;101240.97;;;1.16;47.43
61568;BME280;47462;59.172;17.196;2023-02-10T16:28:31;101007.31;;;-0.16;47.78
61568;BME280;47462;59.172;17.196;2023-02-10T16:30:57;101215.84;;;1.00;47.18
61568;BME280;47462;59.172;17.196;2023-02-10T16:33:22;101152.63;;;0.64;47.61
61568;BME280;47462;59.172;17.196;2023-02-10T16:35:48;101222.16;;;1.19;47.80
61568;BME280;47462;59.172;17.196;2023-02-10T16:38:13;101190.81;;;0.91;47.90
61568;BME280;47462;59.172;17.196;2023-02-10T16:40:39;101205.06;;;1.21;48.06
61568;BME280;47462;59.172;17.196;2023-02-10T16:43:05;101186.06;;;1.13;47.08
61568;BME280;47462;59.172;17.196;2023-02-10T16:45:31;101193.09;;;1.21;46.54
61568;BME280;47462;59.172;17.196;2023-02-10T16:47:57;101142.03;;;0.93;46.55
61568;BME280;47462;59.172;17.196;2023-02-10T16:50:35;101168.81;;;1.07;47.16
61568;BME280;47462;59.172;17.196;2023-02-10T16:53:02;101182.78;;;1.20;47.17
61568;BME280;47462;59.172;17.196;2023-02-10T16:55:29;101151.75;;;1.09;47.09
61568;BME280;47462;59.172;17.196;2023-02-10T16:57:56;101091.19;;;0.76;47.59
61568;BME280;47462;59.172;17.196;2023-02-10T17:00:22;101165.75;;;1.28;48.09
61568;BME280;47462;59.172;17.196;2023-02-10T17:02:48;101097.56;;;0.97;47.88
61568;BME280;47462;59.172;17.196;2023-02-10T17:05:14;101141.88;;;1.34;47.69
61568;BME280;47462;59.172;17.196;2023-02-10T17:07:40;101117.69;;;1.24;47.38
61568;BME280;47462;59.172;17.196;2023-02-10T17:10:08;100936.06;;;0.14;47.28
61568;BME280;47462;59.172;17.196;2023-02-10T17:12:36;101093.50;;;1.11;47.81
61568;BME280;47462;59.172;17.196;2023-02-10T17:15:02;101122.19;;;1.37;47.58
61568;BME280;47462;59.172;17.196;2023-02-10T17:17:27;101096.13;;;1.14;47.98
61568;BME280;47462;59.172;17.196;2023-02-10T17:19:53;101110.13;;;1.32;48.00
61568;BME280;47462;59.172;17.196;2023-02-10T17:22:18;101085.00;;;1.15;47.23
61568;BME280;47462;59.172;17.196;2023-02-10T17:24:44;101073.88;;;1.18;47.22
61568;BME280;47462;59.172;17.196;2023-02-10T17:27:10;101022.97;;;0.92;47.75
61568;BME280;47462;59.172;17.196;2023-02-10T17:29:37;101057.63;;;1.19;48.88
61568;BME280;47462;59.172;17.196;2023-02-10T17:32:03;101073.16;;;1.25;48.52
61568;BME280;47462;59.172;17.196;2023-02-10T17:34:29;101044.53;;;1.02;48.57
61568;BME280;47462;59.172;17.196;2023-02-10T17:37:03;101059.47;;;1.26;48.79
61568;BME280;47462;59.172;17.196;2023-02-10T17:39:31;100968.66;;;0.70;48.59
61568;BME280;47462;59.172;17.196;2023-02-10T17:42:15;101067.00;;;1.15;48.46
61568;BME280;47462;59.172;17.196;2023-02-10T17:44:44;100989.44;;;0.84;47.89
61568;BME280;47462;59.172;17.196;2023-02-10T17:47:09;101010.22;;;1.00;47.74
61568;BME280;47462;59.172;17.196;2023-02-10T17:49:35;100919.56;;;0.53;47.82
61568;BME280;47462;59.172;17.196;2023-02-10T17:52:01;100982.75;;;0.96;48.56
61568;BME280;47462;59.172;17.196;2023-02-10T17:54:27;100993.16;;;1.05;48.41
61568;BME280;47462;59.172;17.196;2023-02-10T17:56:52;100993.06;;;0.99;48.45
61568;BME280;47462;59.172;17.196;2023-02-10T17:59:18;100972.59;;;1.05;48.84
61568;BME280;47462;59.172;17.196;2023-02-10T18:01:45;100967.50;;;1.08;49.27
61568;BME280;47462;59.172;17.196;2023-02-10T18:04:11;100822.50;;;0.28;49.73
61568;BME280;47462;59.172;17.196;2023-02-10T18:06:43;100938.41;;;1.11;49.95
61568;BME280;47462;59.172;17.196;2023-02-10T18:09:08;100953.91;;;1.15;50.43
61568;BME280;47462;59.172;17.196;2023-02-10T18:11:34;100948.66;;;1.08;51.45
61568;BME280;47462;59.172;17.196;2023-02-10T18:14:01;100938.28;;;1.00;52.12
61568;BME280;47462;59.172;17.196;2023-02-10T18:16:27;100915.88;;;0.93;53.02
61568;BME280;47462;59.172;17.196;2023-02-10T18:18:53;100830.47;;;0.48;53.41
61568;BME280;47462;59.172;17.196;2023-02-10T18:21:22;100912.66;;;1.06;53.99
61568;BME280;47462;59.172;17.196;2023-02-10T18:23:49;100899.84;;;1.09;54.22
61568;BME280;47462;59.172;17.196;2023-02-10T18:26:16;100903.19;;;1.03;55.61
61568;BME280;47462;59.172;17.196;2023-02-10T18:28:42;100878.91;;;0.81;56.62
61568;BME280;47462;59.172;17.196;2023-02-10T18:31:08;100885.72;;;0.79;57.83
61568;BME280;47462;59.172;17.196;2023-02-10T18:33:39;100877.22;;;0.83;58.92
61568;BME280;47462;59.172;17.196;2023-02-10T18:36:06;100856.56;;;0.76;59.29
61568;BME280;47462;59.172;17.196;2023-02-10T18:38:32;100838.72;;;0.86;59.74
61568;BME280;47462;59.172;17.196;2023-02-10T18:40:58;100834.53;;;0.95;59.75
61568;BME280;47462;59.172;17.196;2023-02-10T18:43:24;100838.78;;;0.93;60.39
61568;BME280;47462;59.172;17.196;2023-02-10T18:45:50;100789.97;;;0.91;60.47
61568;BME280;47462;59.172;17.196;2023-02-10T18:48:17;100778.78;;;0.87;61.34
61568;BME280;47462;59.172;17.196;2023-02-10T18:50:48;100740.91;;;0.71;61.94
61568;BME280;47462;59.172;17.196;2023-02-10T18:53:14;100732.34;;;0.70;62.68
61568;BME280;47462;59.172;17.196;2023-02-10T18:55:40;100747.97;;;0.87;62.96
61568;BME280;47462;59.172;17.196;2023-02-10T18:58:11;100670.50;;;0.57;63.27
61568;BME280;47462;59.172;17.196;2023-02-10T19:00:37;100695.56;;;0.76;63.33
61568;BME280;47462;59.172;17.196;2023-02-10T19:03:04;100666.31;;;0.62;63.42
61568;BME280;47462;59.172;17.196;2023-02-10T19:05:30;100681.03;;;0.75;63.13
61568;BME280;47462;59.172;17.196;2023-02-10T19:07:55;100687.84;;;0.73;63.63
61568;BME280;47462;59.172;17.196;2023-02-10T19:10:21;100672.34;;;0.65;64.19
61568;BME280;47462;59.172;17.196;2023-02-10T19:12:46;100656.72;;;0.47;64.59
61568;BME280;47462;59.172;17.196;2023-02-10T19:15:16;100606.75;;;0.19;65.18
61568;BME280;47462;59.172;17.196;2023-02-10T19:17:42;100629.97;;;0.26;65.69
61568;BME280;47462;59.172;17.196;2023-02-10T19:20:08;100567.19;;;0.01;66.34
61568;BME280;47462;59.172;17.196;2023-02-10T19:22:35;100587.06;;;0.17;66.96
61568;BME280;47462;59.172;17.196;2023-02-10T19:25:02;100609.66;;;0.46;67.00
61568;BME280;47462;59.172;17.196;2023-02-10T19:27:28;100600.19;;;0.44;67.82
61568;BME280;47462;59.172;17.196;2023-02-10T19:29:54;100590.72;;;0.40;68.67
61568;BME280;47462;59.172;17.196;2023-02-10T19:32:19;100582.06;;;0.28;69.39
61568;BME280;47462;59.172;17.196;2023-02-10T19:34:45;100574.28;;;0.21;70.19
61568;BME280;47462;59.172;17.196;2023-02-10T19:37:11;100537.09;;;-0.11;70.55
61568;BME280;47462;59.172;17.196;2023-02-10T19:39:37;100532.72;;;-0.23;71.57
61568;BME280;47462;59.172;17.196;2023-02-10T19:42:04;100542.19;;;-0.14;72.26
61568;BME280;47462;59.172;17.196;2023-02-10T19:44:30;100530.19;;;-0.20;72.88
61568;BME280;47462;59.172;17.196;2023-02-10T19:46:59;100547.31;;;-0.14;73.46
61568;BME280;47462;59.172;17.196;2023-02-10T19:49:25;100501.00;;;-0.28;73.94
61568;BME280;47462;59.172;17.196;2023-02-10T19:51:50;100500.38;;;-0.10;73.91
61568;BME280;47462;59.172;17.196;2023-02-10T19:54:16;100485.75;;;-0.15;74.83
61568;BME280;47462;59.172;17.196;2023-02-10T19:56:43;100383.00;;;-1.03;74.61
61568;BME280;47462;59.172;17.196;2023-02-10T19:59:09;100413.66;;;-0.40;75.32
61568;BME280;47462;59.172;17.196;2023-02-10T20:01:35;100414.72;;;-0.24;75.74
61568;BME280;47462;59.172;17.196;2023-02-10T20:04:01;100374.28;;;-0.48;76.12
61568;BME280;47462;59.172;17.196;2023-02-10T20:06:37;100426.69;;;-0.23;76.65
61568;BME280;47462;59.172;17.196;2023-02-10T20:09:04;100205.00;;;-1.42;77.02
61568;BME280;47462;59.172;17.196;2023-02-10T20:11:31;100392.59;;;-0.14;77.44
61568;BME280;47462;59.172;17.196;2023-02-10T20:13:57;100378.94;;;-0.13;77.32
61568;BME280;47462;59.172;17.196;2023-02-10T20:16:23;100319.75;;;-0.33;77.46
61568;BME280;47462;59.172;17.196;2023-02-10T20:18:49;100342.22;;;-0.03;78.15
61568;BME280;47462;59.172;17.196;2023-02-10T20:21:15;100331.09;;;-0.05;77.93
61568;BME280;47462;59.172;17.196;2023-02-10T20:23:41;100325.94;;;-0.08;78.53
61568;BME280;47462;59.172;17.196;2023-02-10T20:26:08;100307.91;;;-0.19;78.56
61568;BME280;47462;59.172;17.196;2023-02-10T20:28:37;100301.09;;;-0.14;78.68
61568;BME280;47462;59.172;17.196;2023-02-10T20:31:03;100284.88;;;-0.13;79.41
61568;BME280;47462;59.172;17.196;2023-02-10T20:33:31;100267.75;;;-0.12;79.35
61568;BME280;47462;59.172;17.196;2023-02-10T20:35:58;100232.53;;;-0.40;79.86
61568;BME280;47462;59.172;17.196;2023-02-10T20:38:27;100237.78;;;-0.23;80.39